createdAt,value
2019-03-06T00:02:20.133Z,9.28
2019-03-06T00:04:51.242Z,9.48
2019-03-06T00:07:22.707Z,9.22
2019-03-06T00:09:54.062Z,9.20
2019-03-06T00:12:25.663Z,9.24
2019-03-06T00:14:56.928Z,9.20
2019-03-06T00:17:28.690Z,9.19
2019-03-06T00:20:00.804Z,9.24
2019-03-06T00:22:33.463Z,9.34
2019-03-06T00:25:04.744Z,9.30
2019-03-06T00:27:35.726Z,9.23
2019-03-06T00:30:07.891Z,9.25
2019-03-06T00:32:39.641Z,9.27
2019-03-06T00:35:16.201Z,9.27
2019-03-06T00:37:47.465Z,9.18
2019-03-06T00:40:33.362Z,9.23
2019-03-06T00:43:04.678Z,9.21
2019-03-06T00:45:36.056Z,9.26
2019-03-06T00:48:07.189Z,9.08
2019-03-06T00:50:38.763Z,9.13
2019-03-06T00:53:09.745Z,9.12
2019-03-06T00:55:40.744Z,9.16
2019-03-06T00:58:11.997Z,9.13
2019-03-06T01:00:43.824Z,9.15
2019-03-06T01:03:15.409Z,9.08
2019-03-06T01:05:46.809Z,9.08
2019-03-06T01:08:18.388Z,9.18
2019-03-06T01:10:49.522Z,9.27
2019-03-06T01:13:20.747Z,9.20
2019-03-06T01:15:51.800Z,9.20
2019-03-06T01:18:23.370Z,9.18
2019-03-06T01:20:54.441Z,9.12
2019-03-06T01:23:25.574Z,9.22
2019-03-06T01:25:57.032Z,9.20
2019-03-06T01:28:28.064Z,9.15
2019-03-06T01:30:59.279Z,9.14
2019-03-06T01:33:35.651Z,9.04
2019-03-06T01:36:28.722Z,9.09
2019-03-06T01:39:19.584Z,9.02
2019-03-06T01:41:56.601Z,8.98
2019-03-06T01:44:32.762Z,9.08
2019-03-06T01:47:04.039Z,9.10
2019-03-06T01:49:35.006Z,9.23
2019-03-06T01:52:06.352Z,9.04
2019-03-06T01:54:37.331Z,9.09
2019-03-06T01:57:08.701Z,8.96
2019-03-06T01:59:39.691Z,9.07
2019-03-06T02:02:11.022Z,8.94
2019-03-06T02:04:44.057Z,9.05
2019-03-06T02:07:15.686Z,8.90
2019-03-06T02:09:47.376Z,8.86
2019-03-06T02:12:18.613Z,9.01
2019-03-06T02:14:49.694Z,8.97
2019-03-06T02:17:21.012Z,8.96
2019-03-06T02:19:52.680Z,8.96
2019-03-06T02:22:23.914Z,9.00
2019-03-06T02:24:55.889Z,8.90
2019-03-06T02:27:27.187Z,8.92
2019-03-06T02:29:58.163Z,8.62
2019-03-06T02:32:29.632Z,8.61
2019-03-06T02:35:01.166Z,8.66
2019-03-06T02:37:32.120Z,8.75
2019-03-06T02:42:41.882Z,8.82
2019-03-06T02:45:14.819Z,8.72
2019-03-06T02:47:45.982Z,8.60
2019-03-06T02:50:17.489Z,8.62
2019-03-06T02:52:49.225Z,8.57
2019-03-06T02:55:20.490Z,8.59
2019-03-06T02:58:00.405Z,8.43
2019-03-06T03:00:56.714Z,8.48
2019-03-06T03:03:38.430Z,8.49
2019-03-06T03:06:16.003Z,8.63
2019-03-06T03:08:46.961Z,8.49
2019-03-06T03:11:17.921Z,8.49
2019-03-06T03:13:49.256Z,8.46
2019-03-06T03:16:20.739Z,8.54
2019-03-06T03:18:51.706Z,8.59
2019-03-06T03:21:22.713Z,8.66
2019-03-06T03:23:54.005Z,8.72
2019-03-06T03:26:25.290Z,8.75
2019-03-06T03:28:56.578Z,8.81
2019-03-06T03:31:28.579Z,8.81
2019-03-06T03:33:59.801Z,8.83
2019-03-06T03:36:31.491Z,8.71
2019-03-06T03:39:02.520Z,8.69
2019-03-06T03:41:35.278Z,8.66
2019-03-06T03:44:06.900Z,8.59
2019-03-06T03:46:38.857Z,8.63
2019-03-06T03:49:10.488Z,8.70
2019-03-06T03:51:41.453Z,8.61
2019-03-06T03:54:12.776Z,8.60
2019-03-06T03:56:44.007Z,8.62
2019-03-06T03:59:15.285Z,8.65
2019-03-06T04:01:46.506Z,8.58
2019-03-06T04:04:17.758Z,8.63
2019-03-06T04:06:48.741Z,8.70
2019-03-06T04:09:20.805Z,8.60
2019-03-06T04:11:51.966Z,8.64
2019-03-06T04:14:23.255Z,8.61
2019-03-06T04:16:54.809Z,8.65
2019-03-06T04:19:26.519Z,8.61
2019-03-06T04:21:57.812Z,8.60
2019-03-06T04:24:29.567Z,8.59
2019-03-06T04:27:01.145Z,8.61
2019-03-06T04:29:32.370Z,8.52
2019-03-06T04:32:03.413Z,8.47
2019-03-06T04:34:34.364Z,8.46
2019-03-06T04:37:05.586Z,8.38
2019-03-06T04:39:36.567Z,8.33
2019-03-06T04:42:08.186Z,8.46
2019-03-06T04:44:39.152Z,8.41
2019-03-06T04:47:10.770Z,8.36
2019-03-06T04:49:52.243Z,8.34
2019-03-06T04:52:15.461Z,8.27
2019-03-06T04:54:46.697Z,8.23
2019-03-06T04:57:17.949Z,8.32
2019-03-06T04:59:48.913Z,8.38
2019-03-06T05:02:20.101Z,8.23
2019-03-06T05:04:51.389Z,8.26
2019-03-06T05:07:23.566Z,8.22
2019-03-06T05:09:55.008Z,8.27
2019-03-06T05:12:26.618Z,8.10
2019-03-06T05:14:57.899Z,8.10
2019-03-06T05:17:38.512Z,8.06
2019-03-06T05:20:10.187Z,8.08
2019-03-06T05:22:41.354Z,8.12
2019-03-06T05:25:12.679Z,8.17
2019-03-06T05:27:44.720Z,8.17
2019-03-06T05:30:16.828Z,8.12
2019-03-06T05:32:48.573Z,8.02
2019-03-06T05:35:57.451Z,8.01
2019-03-06T05:38:38.329Z,7.88
2019-03-06T05:41:09.295Z,7.92
2019-03-06T05:43:40.567Z,7.95
2019-03-06T05:46:11.915Z,7.87
2019-03-06T05:48:43.875Z,7.87
2019-03-06T05:51:15.218Z,7.83
2019-03-06T05:53:46.888Z,7.92
2019-03-06T05:56:18.450Z,7.87
2019-03-06T05:58:50.075Z,7.87
2019-03-06T06:01:21.144Z,7.92
2019-03-06T06:03:52.281Z,7.89
2019-03-06T06:06:23.420Z,7.95
2019-03-06T06:08:54.383Z,7.90
2019-03-06T06:11:25.638Z,7.84
2019-03-06T06:13:56.609Z,7.73
2019-03-06T06:16:27.836Z,7.84
2019-03-06T06:19:01.629Z,7.86
2019-03-06T06:21:45.326Z,7.76
2019-03-06T06:24:25.201Z,7.85
2019-03-06T06:26:56.164Z,8.00
2019-03-06T06:29:27.764Z,8.01
2019-03-06T06:32:00.115Z,7.99
2019-03-06T06:34:31.727Z,7.95
2019-03-06T06:37:02.806Z,7.95
2019-03-06T06:39:34.084Z,7.87
2019-03-06T06:42:05.460Z,8.09
2019-03-06T06:44:37.026Z,8.00
2019-03-06T06:47:08.333Z,7.92
2019-03-06T06:49:39.387Z,7.90
2019-03-06T06:53:00.660Z,7.85
2019-03-06T06:55:54.973Z,7.91
2019-03-06T06:58:42.578Z,7.98
2019-03-06T07:02:32.703Z,7.98
2019-03-06T07:05:31.279Z,7.96
2019-03-06T07:08:21.227Z,8.02
2019-03-06T07:11:23.732Z,7.92
2019-03-06T07:14:32.096Z,7.90
2019-03-06T07:17:22.174Z,7.82
2019-03-06T07:20:00.544Z,7.96
2019-03-06T07:22:46.111Z,8.02
2019-03-06T07:25:45.124Z,8.22
2019-03-06T07:28:45.539Z,8.41
2019-03-06T07:31:39.563Z,8.37
2019-03-06T07:34:26.435Z,8.54
2019-03-06T07:37:05.451Z,8.51
2019-03-06T07:39:42.786Z,8.46
2019-03-06T07:42:32.233Z,8.59
2019-03-06T07:46:00.343Z,8.73
2019-03-06T07:48:46.744Z,8.79
2019-03-06T07:51:42.321Z,8.87
2019-03-06T07:54:36.143Z,8.97
2019-03-06T07:57:38.846Z,9.14
2019-03-06T08:00:21.638Z,9.13
2019-03-06T08:03:38.260Z,9.28
2019-03-06T08:06:09.818Z,9.46
2019-03-06T08:08:40.886Z,9.49
2019-03-06T08:11:23.595Z,9.71
2019-03-06T08:14:09.449Z,9.78
2019-03-06T08:16:46.561Z,9.93
2019-03-06T08:19:29.142Z,10.00
2019-03-06T08:22:10.967Z,10.05
2019-03-06T08:24:53.348Z,10.14
2019-03-06T08:27:26.285Z,10.25
2019-03-06T08:29:57.503Z,10.42
2019-03-06T08:32:33.946Z,10.49
2019-03-06T08:35:06.300Z,10.68
2019-03-06T08:37:37.699Z,10.76
2019-03-06T08:40:09.149Z,10.85
2019-03-06T08:42:40.233Z,10.81
2019-03-06T08:45:12.812Z,10.92
2019-03-06T08:47:52.475Z,11.08
2019-03-06T08:50:38.162Z,11.05
2019-03-06T08:53:15.006Z,11.14
2019-03-06T08:56:04.432Z,11.05
2019-03-06T08:58:51.762Z,11.15
2019-03-06T09:02:03.536Z,11.24
2019-03-06T09:05:00.475Z,11.42
2019-03-06T09:07:43.199Z,11.39
2019-03-06T09:10:32.505Z,11.46
2019-03-06T09:13:12.982Z,11.48
2019-03-06T09:16:02.845Z,11.50
2019-03-06T09:18:52.897Z,11.62
2019-03-06T09:21:40.777Z,11.71
2019-03-06T09:24:33.791Z,11.77
2019-03-06T09:27:12.964Z,11.83
2019-03-06T09:29:53.562Z,11.85
2019-03-06T09:32:43.697Z,11.95
2019-03-06T09:35:32.667Z,12.20
2019-03-06T09:38:17.550Z,12.12
2019-03-06T09:41:06.664Z,12.06
2019-03-06T09:43:58.360Z,12.12
2019-03-06T09:46:57.308Z,12.17
2019-03-06T09:49:34.827Z,12.24
2019-03-06T09:52:23.908Z,12.29
2019-03-06T09:55:22.707Z,12.47
2019-03-06T09:58:01.716Z,12.36
2019-03-06T10:00:46.815Z,12.36
2019-03-06T10:03:41.623Z,12.57
2019-03-06T10:06:32.726Z,12.46
2019-03-06T10:09:17.667Z,12.42
2019-03-06T10:11:58.793Z,12.45
2019-03-06T10:14:36.698Z,12.50
2019-03-06T10:17:14.664Z,12.42
2019-03-06T10:19:50.065Z,12.36
2019-03-06T10:22:21.599Z,12.52
2019-03-06T10:24:52.779Z,12.52
2019-03-06T10:27:24.397Z,12.61
2019-03-06T10:29:55.456Z,12.58
2019-03-06T10:32:26.930Z,12.65
2019-03-06T10:34:58.581Z,12.65
2019-03-06T10:37:29.616Z,12.63
2019-03-06T10:40:05.738Z,12.62
2019-03-06T10:42:38.692Z,12.76
2019-03-06T10:45:10.370Z,12.77
2019-03-06T10:47:41.338Z,12.77
2019-03-06T10:50:15.742Z,12.86
2019-03-06T10:52:47.041Z,12.86
2019-03-06T10:55:18.680Z,12.85
2019-03-06T10:57:50.106Z,12.98
2019-03-06T11:00:27.021Z,13.01
2019-03-06T11:02:58.511Z,13.05
2019-03-06T11:05:34.043Z,13.10
2019-03-06T11:08:06.658Z,13.15
2019-03-06T11:10:37.802Z,13.19
2019-03-06T11:13:12.770Z,13.20
2019-03-06T11:15:45.368Z,13.24
2019-03-06T11:18:17.390Z,13.25
2019-03-06T11:20:48.967Z,13.34
2019-03-06T11:23:20.275Z,13.36
2019-03-06T11:25:51.727Z,13.44
2019-03-06T11:28:23.011Z,13.54
2019-03-06T11:30:55.610Z,13.69
2019-03-06T11:33:27.417Z,13.84
2019-03-06T11:35:59.503Z,13.91
2019-03-06T11:38:30.942Z,14.03
2019-03-06T11:41:05.175Z,14.09
2019-03-06T11:43:36.704Z,14.14
2019-03-06T11:46:09.486Z,14.22
2019-03-06T11:48:40.929Z,14.30
2019-03-06T11:51:11.991Z,14.41
2019-03-06T11:53:42.958Z,14.72
2019-03-06T11:56:14.954Z,14.64
2019-03-06T11:58:46.720Z,14.75
2019-03-06T12:01:22.644Z,14.97
2019-03-06T12:03:54.369Z,15.02
2019-03-06T12:06:25.677Z,15.03
2019-03-06T12:08:56.878Z,15.05
2019-03-06T12:11:28.817Z,15.13
2019-03-06T12:13:59.811Z,15.12
2019-03-06T12:16:31.635Z,15.37
2019-03-06T12:19:02.993Z,15.41
2019-03-06T12:21:34.417Z,15.53
2019-03-06T12:24:05.704Z,15.46
2019-03-06T12:26:37.010Z,15.42
2019-03-06T12:29:08.395Z,15.48
2019-03-06T12:31:39.793Z,15.50
2019-03-06T12:34:11.303Z,15.57
2019-03-06T12:36:43.001Z,15.60
2019-03-06T12:39:15.022Z,15.65
2019-03-06T12:41:46.154Z,15.80
2019-03-06T12:44:17.566Z,15.95
2019-03-06T12:46:52.379Z,16.03
2019-03-06T12:49:25.876Z,16.27
2019-03-06T12:51:57.036Z,16.29
2019-03-06T12:54:30.575Z,16.27
2019-03-06T12:57:02.452Z,16.24
2019-03-06T12:59:33.849Z,16.45
2019-03-06T13:02:04.928Z,16.54
2019-03-06T13:04:36.231Z,16.39
2019-03-06T13:07:07.279Z,16.46
2019-03-06T13:09:38.377Z,16.61
2019-03-06T13:12:11.742Z,16.78
2019-03-06T13:14:42.964Z,16.75
2019-03-06T13:17:14.038Z,16.77
2019-03-06T13:19:45.476Z,16.93
2019-03-06T13:22:17.154Z,16.92
2019-03-06T13:24:48.476Z,16.95
2019-03-06T13:27:20.055Z,17.03
2019-03-06T13:29:51.339Z,17.05
2019-03-06T13:32:24.031Z,17.08
2019-03-06T13:35:00.270Z,17.03
2019-03-06T13:37:31.954Z,17.07
2019-03-06T13:40:03.476Z,17.23
2019-03-06T13:42:35.989Z,17.25
2019-03-06T13:45:07.521Z,17.27
2019-03-06T13:47:38.917Z,17.38
2019-03-06T13:50:11.674Z,17.21
2019-03-06T13:52:43.325Z,17.48
2019-03-06T13:55:14.463Z,17.25
2019-03-06T13:57:46.498Z,17.12
2019-03-06T14:00:19.068Z,17.16
2019-03-06T14:02:50.669Z,17.15
2019-03-06T14:05:23.255Z,17.14
2019-03-06T14:07:56.667Z,17.09
2019-03-06T14:10:27.427Z,17.06
2019-03-06T14:12:58.857Z,17.11
2019-03-06T14:15:30.263Z,17.09
2019-03-06T14:18:01.551Z,17.09
2019-03-06T14:20:34.099Z,17.06
2019-03-06T14:23:06.098Z,17.02
2019-03-06T14:25:37.441Z,16.98
2019-03-06T14:28:08.932Z,16.94
2019-03-06T14:30:40.961Z,16.87
2019-03-06T14:33:12.724Z,16.87
2019-03-06T14:35:44.253Z,16.82
2019-03-06T14:38:15.703Z,16.82
2019-03-06T14:40:48.445Z,16.80
2019-03-06T14:43:21.261Z,16.79
2019-03-06T14:45:52.663Z,16.73
2019-03-06T14:48:24.376Z,16.67
2019-03-06T14:50:55.673Z,16.64
2019-03-06T14:53:26.890Z,16.62
2019-03-06T14:55:58.614Z,16.57
2019-03-06T14:58:29.988Z,16.54
2019-03-06T15:01:01.465Z,16.52
2019-03-06T15:03:34.126Z,16.53
2019-03-06T15:06:06.050Z,16.51
2019-03-06T15:08:38.166Z,16.51
2019-03-06T15:11:10.418Z,16.51
2019-03-06T15:13:41.642Z,16.50
2019-03-06T15:16:12.700Z,16.48
2019-03-06T15:18:44.335Z,16.40
2019-03-06T15:21:27.435Z,16.42
2019-03-06T15:23:58.704Z,16.41
2019-03-06T15:26:30.112Z,16.47
2019-03-06T15:29:01.894Z,16.43
2019-03-06T15:31:35.884Z,16.39
2019-03-06T15:34:07.714Z,16.40
2019-03-06T15:36:38.880Z,16.44
2019-03-06T15:39:30.684Z,16.40
2019-03-06T15:42:04.394Z,16.32
2019-03-06T15:44:36.099Z,16.34
2019-03-06T15:47:07.288Z,16.33
2019-03-06T15:49:38.795Z,16.33
2019-03-06T15:52:11.900Z,16.32
2019-03-06T15:54:43.827Z,16.34
2019-03-06T15:57:14.903Z,16.27
2019-03-06T15:59:46.149Z,16.28
2019-03-06T16:02:17.402Z,16.19
2019-03-06T16:04:49.000Z,16.20
2019-03-06T16:07:20.943Z,16.22
2019-03-06T16:09:52.468Z,16.23
2019-03-06T16:12:23.623Z,16.17
2019-03-06T16:14:54.978Z,16.18
2019-03-06T16:17:26.107Z,16.19
2019-03-06T16:19:57.963Z,16.20
2019-03-06T16:22:29.067Z,16.18
2019-03-06T16:25:00.761Z,16.16
2019-03-06T16:27:32.028Z,16.10
2019-03-06T16:30:04.003Z,16.08
2019-03-06T16:32:35.418Z,16.06
2019-03-06T16:35:07.077Z,16.06
2019-03-06T16:37:38.465Z,15.98
2019-03-06T16:40:16.738Z,16.01
2019-03-06T16:42:48.437Z,15.90
2019-03-06T16:45:21.291Z,15.84
2019-03-06T16:47:53.171Z,15.83
2019-03-06T16:50:26.238Z,15.80
2019-03-06T16:52:57.531Z,15.84
2019-03-06T16:55:29.474Z,15.75
2019-03-06T16:58:00.959Z,15.71
2019-03-06T17:00:33.537Z,15.65
2019-03-06T17:03:04.856Z,15.68
2019-03-06T17:05:36.398Z,15.69
2019-03-06T17:08:09.266Z,15.65
2019-03-06T17:10:56.423Z,15.65
2019-03-06T17:13:28.435Z,15.58
2019-03-06T17:15:59.750Z,15.53
2019-03-06T17:18:30.843Z,15.53
2019-03-06T17:21:02.381Z,15.52
2019-03-06T17:23:34.209Z,15.55
2019-03-06T17:26:05.446Z,15.46
2019-03-06T17:28:36.775Z,15.39
2019-03-06T17:31:08.010Z,15.34
2019-03-06T17:33:40.176Z,15.31
2019-03-06T17:36:11.418Z,15.18
2019-03-06T17:38:42.738Z,15.12
2019-03-06T17:41:14.102Z,15.16
2019-03-06T17:43:46.348Z,15.12
2019-03-06T17:46:18.122Z,15.11
2019-03-06T17:48:49.213Z,15.03
2019-03-06T17:51:20.606Z,14.94
2019-03-06T17:53:51.956Z,14.99
2019-03-06T17:56:23.568Z,14.98
2019-03-06T17:58:56.439Z,14.96
2019-03-06T18:01:28.065Z,14.96
2019-03-06T18:04:09.213Z,14.96
2019-03-06T18:06:40.501Z,14.90
2019-03-06T18:09:11.721Z,14.84
2019-03-06T18:11:44.438Z,14.86
2019-03-06T18:14:16.099Z,14.84
2019-03-06T18:16:48.336Z,14.86
2019-03-06T18:19:19.918Z,14.96
2019-03-06T18:21:50.970Z,14.99
2019-03-06T18:24:22.705Z,15.05
2019-03-06T18:26:55.663Z,15.05
2019-03-06T18:29:27.869Z,15.05
2019-03-06T18:31:59.010Z,14.99
2019-03-06T18:34:30.431Z,14.99
2019-03-06T18:37:01.777Z,14.88
2019-03-06T18:39:34.519Z,14.81
2019-03-06T18:42:06.215Z,14.63
2019-03-06T18:44:37.844Z,14.59
2019-03-06T18:47:09.198Z,14.58
2019-03-06T18:49:40.830Z,14.55
2019-03-06T18:52:13.901Z,14.53
2019-03-06T18:54:46.566Z,14.56
2019-03-06T18:57:17.614Z,14.60
2019-03-06T18:59:49.070Z,14.59
2019-03-06T19:02:20.197Z,14.51
2019-03-06T19:04:52.909Z,14.49
2019-03-06T19:07:24.325Z,14.46
2019-03-06T19:09:55.470Z,14.36
2019-03-06T19:12:27.417Z,14.36
2019-03-06T19:14:59.747Z,14.36
2019-03-06T19:17:31.647Z,14.35
2019-03-06T19:20:02.963Z,14.31
2019-03-06T19:22:34.259Z,14.26
2019-03-06T19:25:05.745Z,14.31
2019-03-06T19:27:37.551Z,14.35
2019-03-06T19:30:16.670Z,14.39
2019-03-06T19:32:48.209Z,14.34
2019-03-06T19:35:20.773Z,14.34
2019-03-06T19:37:52.471Z,14.35
2019-03-06T19:40:23.740Z,14.45
2019-03-06T19:42:55.192Z,14.50
2019-03-06T19:45:26.601Z,14.42
2019-03-06T19:47:58.218Z,14.36
2019-03-06T19:50:29.624Z,14.40
2019-03-06T19:53:00.586Z,14.37
2019-03-06T19:55:32.633Z,14.35
2019-03-06T19:58:06.298Z,14.34
2019-03-06T20:00:37.806Z,14.37
2019-03-06T20:03:09.723Z,14.37
2019-03-06T20:05:41.811Z,14.31
2019-03-06T20:08:13.955Z,14.39
2019-03-06T20:10:46.660Z,14.40
2019-03-06T20:13:17.814Z,14.33
2019-03-06T20:15:49.560Z,14.27
2019-03-06T20:18:21.945Z,14.22
2019-03-06T20:20:53.023Z,14.34
2019-03-06T20:23:24.783Z,14.28
2019-03-06T20:25:55.878Z,14.35
2019-03-06T20:28:26.905Z,14.34
2019-03-06T20:30:58.438Z,14.36
2019-03-06T20:33:29.570Z,14.36
2019-03-06T20:36:00.567Z,14.37
2019-03-06T20:38:32.686Z,14.37
2019-03-06T20:41:04.822Z,14.35
2019-03-06T20:43:36.379Z,14.34
2019-03-06T20:46:07.910Z,14.32
2019-03-06T20:48:39.640Z,14.38
2019-03-06T20:51:10.952Z,14.22
2019-03-06T20:53:42.593Z,14.27
2019-03-06T20:56:13.927Z,14.30
2019-03-06T20:58:45.159Z,14.16
2019-03-06T21:01:16.519Z,14.05
2019-03-06T21:03:47.863Z,14.00
2019-03-06T21:06:19.265Z,14.07
2019-03-06T21:08:50.863Z,14.06
2019-03-06T21:11:22.173Z,14.07
2019-03-06T21:13:53.489Z,14.10
2019-03-06T21:16:26.741Z,14.16
2019-03-06T21:18:59.829Z,14.08
2019-03-06T21:21:31.188Z,14.09
2019-03-06T21:24:02.502Z,14.08
2019-03-06T21:26:34.896Z,14.07
2019-03-06T21:29:05.872Z,14.04
2019-03-06T21:31:36.940Z,14.01
2019-03-06T21:34:08.890Z,14.00
2019-03-06T21:36:40.258Z,13.99
2019-03-06T21:39:23.137Z,14.03
2019-03-06T21:41:54.568Z,13.99
2019-03-06T21:44:26.935Z,14.11
2019-03-06T21:46:58.310Z,14.15
2019-03-06T21:49:29.905Z,14.21
2019-03-06T21:52:01.396Z,14.18
2019-03-06T21:54:34.650Z,14.11
2019-03-06T21:57:05.646Z,14.19
2019-03-06T21:59:38.197Z,14.18
2019-03-06T22:02:10.051Z,13.95
2019-03-06T22:04:42.691Z,14.02
2019-03-06T22:07:13.697Z,14.03
2019-03-06T22:09:44.694Z,14.04
2019-03-06T22:12:15.766Z,14.02
2019-03-06T22:14:46.994Z,14.00
2019-03-06T22:17:18.251Z,14.00
2019-03-06T22:19:49.313Z,13.96
2019-03-06T22:22:20.553Z,13.94
2019-03-06T22:24:52.477Z,13.80
2019-03-06T22:27:23.473Z,13.80
2019-03-06T22:29:54.723Z,13.83
2019-03-06T22:32:26.034Z,13.83
2019-03-06T22:34:57.017Z,13.81
2019-03-06T22:37:28.484Z,13.74
2019-03-06T22:39:59.463Z,13.77
2019-03-06T22:42:31.323Z,13.67
2019-03-06T22:45:02.775Z,13.58
2019-03-06T22:47:35.101Z,13.68
2019-03-06T22:50:08.409Z,13.77
2019-03-06T22:52:39.920Z,13.77
2019-03-06T22:55:14.204Z,13.73
2019-03-06T22:57:46.509Z,13.62
2019-03-06T23:00:44.120Z,13.63
2019-03-06T23:03:17.495Z,13.58
2019-03-06T23:05:49.428Z,13.49
2019-03-06T23:08:20.430Z,13.38
2019-03-06T23:10:52.357Z,13.43
2019-03-06T23:13:23.650Z,13.36
2019-03-06T23:15:55.175Z,13.40
2019-03-06T23:18:26.260Z,13.43
2019-03-06T23:20:57.223Z,13.44
2019-03-06T23:23:28.871Z,13.43
2019-03-06T23:26:00.461Z,13.23
2019-03-06T23:28:31.470Z,13.28
2019-03-06T23:31:02.786Z,13.31
2019-03-06T23:33:35.893Z,13.24
2019-03-06T23:36:07.413Z,13.21
2019-03-06T23:38:38.394Z,13.20
2019-03-06T23:41:09.707Z,13.09
2019-03-06T23:43:41.385Z,13.00
2019-03-06T23:46:12.738Z,12.96
2019-03-06T23:48:43.973Z,12.93
2019-03-06T23:51:23.297Z,12.89
2019-03-06T23:53:55.495Z,12.96
2019-03-06T23:56:26.453Z,12.87
2019-03-06T23:58:58.773Z,12.94
